Time;durP1;ratioP1;P1;durP2;ratioP2;P2;SDS_P1;SDS_P2;PMS_P1;PMS_P2;Temp;Humidity;BMP_temperature;BMP_pressure;BME280_temperature;BME280_humidity;BME280_pressure;Samples;Min_cycle;Max_cycle;Signal;HPM_P1;HPM_P2
2023/10/05 00:00:31;;;;;;;3.33;1.33;;;;;;;13.89;100.00;102042.94;5020505;28;20107;-75
2023/10/05 00:02:57;;;;;;;6.45;1.52;;;;;;;13.89;100.00;102034.50;5018764;28;20394;-75
2023/10/05 00:05:22;;;;;;;6.65;2.00;;;;;;;13.89;100.00;102042.94;5017612;28;20029;-75
2023/10/05 00:07:48;;;;;;;5.72;2.17;;;;;;;13.89;100.00;102051.38;5018673;28;20032;-75
2023/10/05 00:10:14;;;;;;;5.28;1.48;;;;;;;13.88;100.00;102046.16;5018914;28;20496;-75
2023/10/05 00:12:39;;;;;;;5.25;1.55;;;;;;;13.89;100.00;102042.94;5020132;28;20378;-75
2023/10/05 00:17:36;;;;;;;10.18;2.33;;;;;;;13.78;100.00;102047.56;5014403;28;20033;-75
2023/10/05 00:20:09;;;;;;;8.40;3.35;;;;;;;13.90;100.00;102050.22;5017101;28;20760;-75
2023/10/05 00:22:34;;;;;;;5.60;1.58;;;;;;;13.87;100.00;102048.16;5024712;28;20389;-75
2023/10/05 00:24:59;;;;;;;7.55;1.50;;;;;;;13.85;100.00;102056.16;5016200;28;20033;-75
2023/10/05 00:27:25;;;;;;;4.57;1.85;;;;;;;13.81;100.00;102049.63;5023945;28;20334;-75
2023/10/05 00:29:56;;;;;;;2.30;1.23;;;;;;;13.89;100.00;102048.56;5026089;28;20025;-75
2023/10/05 00:32:39;;;;;;;4.30;1.30;;;;;;;13.88;100.00;102041.31;5023662;28;20516;-75
2023/10/05 00:35:26;;;;;;;3.53;1.70;;;;;;;13.90;100.00;102041.75;5016465;28;20033;-75
2023/10/05 00:37:52;;;;;;;3.50;1.70;;;;;;;13.84;100.00;102046.06;5016035;28;20036;-75
2023/10/05 00:43:01;;;;;;;4.70;1.73;;;;;;;13.85;100.00;102041.25;5012511;28;20069;-75
2023/10/05 00:45:31;;;;;;;2.38;1.40;;;;;;;13.83;100.00;102042.44;5013464;28;20061;-75
2023/10/05 00:48:08;;;;;;;7.75;2.50;;;;;;;13.75;100.00;102045.50;5016039;28;20041;-75
2023/10/05 00:50:34;;;;;;;4.72;1.40;;;;;;;13.75;100.00;102037.06;5018247;28;20179;-74
2023/10/05 00:52:59;;;;;;;4.03;1.73;;;;;;;13.80;100.00;102043.16;5018759;28;20425;-73
2023/10/05 00:55:26;;;;;;;9.32;1.80;;;;;;;13.76;100.00;102038.66;5018659;28;20034;-73
2023/10/05 00:57:51;;;;;;;6.35;1.70;;;;;;;13.79;100.00;102024.66;5018661;28;20090;-74
2023/10/05 01:00:27;;;;;;;4.18;1.50;;;;;;;13.79;100.00;102033.13;5016158;28;20041;-74
2023/10/05 01:05:48;;;;;;;12.50;3.20;;;;;;;13.73;100.00;102036.59;5013272;28;20049;-73
2023/10/05 01:08:16;;;;;;;6.60;2.28;;;;;;;13.79;100.00;102027.50;5016153;28;20478;-73
2023/10/05 01:10:44;;;;;;;7.38;1.98;;;;;;;13.80;100.00;102028.28;5012622;28;20033;-73
2023/10/05 01:13:32;;;;;;;3.95;1.67;;;;;;;13.67;100.00;102024.03;5021134;28;20036;-74
2023/10/05 01:15:57;;;;;;;9.77;2.08;;;;;;;13.72;100.00;102030.16;5016979;28;20069;-73
2023/10/05 01:18:27;;;;;;;8.20;2.05;;;;;;;13.78;100.00;102025.03;5015096;28;20125;-74
2023/10/05 01:20:55;;;;;;;4.85;1.27;;;;;;;13.79;100.00;102026.69;5010570;28;20394;-73
2023/10/05 01:23:31;;;;;;;4.32;1.58;;;;;;;13.77;100.00;102018.59;5015765;28;20044;-74
2023/10/05 01:25:56;;;;;;;16.52;2.15;;;;;;;13.71;100.00;102013.66;5016428;28;20044;-74
2023/10/05 01:28:21;;;;;;;4.22;1.42;;;;;;;13.76;100.00;102008.53;5022438;28;20445;-73
2023/10/05 01:30:47;;;;;;;5.97;1.75;;;;;;;13.82;100.00;102014.66;5015889;28;20389;-73
2023/10/05 01:33:12;;;;;;;4.68;1.63;;;;;;;13.73;100.00;102016.91;5014479;28;20036;-73
2023/10/05 01:35:41;;;;;;;4.38;1.60;;;;;;;13.76;100.00;102016.97;5013104;28;20042;-73
2023/10/05 01:38:07;;;;;;;6.85;2.08;;;;;;;13.79;100.00;102018.25;5017063;28;20022;-73
2023/10/05 01:40:36;;;;;;;8.02;2.05;;;;;;;13.78;100.00;102020.22;5014314;28;20122;-73
2023/10/05 01:43:02;;;;;;;9.00;1.85;;;;;;;13.77;100.00;102017.78;5024005;28;20035;-73
2023/10/05 01:45:33;;;;;;;6.70;1.85;;;;;;;13.82;100.00;102015.47;5025897;28;20025;-73
2023/10/05 01:48:06;;;;;;;5.85;1.85;;;;;;;13.81;100.00;102018.69;5014734;28;20152;-73
2023/10/05 01:50:32;;;;;;;3.20;2.15;;;;;;;13.78;100.00;102008.16;5023443;28;20029;-73
2023/10/05 01:55:34;;;;;;;6.50;1.75;;;;;;;13.81;100.00;102019.50;5022554;28;20032;-73
2023/10/05 01:57:59;;;;;;;8.95;2.10;;;;;;;13.83;100.00;102005.06;5022806;28;20213;-73
2023/10/05 02:00:25;;;;;;;7.20;2.63;;;;;;;13.87;100.00;102010.72;5027996;28;20648;-75
2023/10/05 02:02:52;;;;;;;4.45;1.65;;;;;;;13.84;100.00;102001.03;5019293;28;20026;-76
2023/10/05 02:05:19;;;;;;;9.05;2.00;;;;;;;13.83;100.00;102002.25;5028348;28;20408;-76
2023/10/05 02:07:45;;;;;;;5.57;1.90;;;;;;;13.86;100.00;102006.31;5025123;28;20167;-76
2023/10/05 02:10:13;;;;;;;4.88;2.25;;;;;;;13.91;100.00;102005.97;5019957;28;20034;-73
2023/10/05 02:12:39;;;;;;;4.15;1.67;;;;;;;13.92;100.00;102005.63;5024934;28;20072;-72
2023/10/05 02:15:16;;;;;;;3.17;1.45;;;;;;;13.93;100.00;102007.22;5024123;28;20859;-72
2023/10/05 02:17:45;;;;;;;5.13;1.63;;;;;;;13.96;100.00;102003.69;5027091;28;20025;-72
2023/10/05 02:20:26;;;;;;;7.65;1.38;;;;;;;13.97;100.00;102010.13;5017446;28;20529;-71
2023/10/05 02:22:52;;;;;;;11.73;2.22;;;;;;;13.99;100.00;102002.91;5023034;28;20084;-73
2023/10/05 02:25:22;;;;;;;8.85;2.25;;;;;;;13.96;100.00;102002.88;5027223;28;20126;-72
2023/10/05 02:27:47;;;;;;;9.68;1.75;;;;;;;13.94;100.00;101997.63;5019831;28;20045;-72
2023/10/05 02:30:14;;;;;;;7.90;2.00;;;;;;;13.85;100.00;102008.31;5023515;28;20390;-71
2023/10/05 02:32:40;;;;;;;6.40;1.58;;;;;;;13.91;100.00;102003.16;5034243;28;20058;-72
2023/10/05 02:35:30;;;;;;;7.15;2.30;;;;;;;13.87;100.00;102010.72;5017827;28;20040;-72
2023/10/05 02:37:53;;;;;;;7.60;2.28;;;;;;;13.81;100.00;102013.06;5015144;28;20044;-74
2023/10/05 02:40:25;;;;;;;12.02;1.65;;;;;;;13.77;100.00;102014.97;5025674;28;20542;-72
2023/10/05 02:42:51;;;;;;;6.93;1.83;;;;;;;13.80;100.00;102000.16;5023215;28;20029;-73
2023/10/05 02:45:20;;;;;;;6.97;2.30;;;;;;;13.79;100.00;101998.53;5039316;28;20043;-72
2023/10/05 02:47:48;;;;;;;6.90;2.00;;;;;;;13.80;100.00;102000.16;5035171;28;20525;-73
2023/10/05 02:50:14;;;;;;;6.05;1.90;;;;;;;13.85;100.00;101999.03;5027460;28;20516;-72
2023/10/05 02:52:40;;;;;;;7.53;3.47;;;;;;;13.80;100.00;101988.91;5024910;28;20022;-72
2023/10/05 02:55:06;;;;;;;6.65;2.00;;;;;;;13.74;100.00;101988.38;5034974;28;20030;-74
2023/10/05 02:57:31;;;;;;;9.35;2.47;;;;;;;13.76;100.00;101997.25;5033372;28;20037;-72
2023/10/05 02:59:57;;;;;;;11.88;2.97;;;;;;;13.72;100.00;101996.38;5019097;28;20078;-72
2023/10/05 03:02:23;;;;;;;6.72;1.95;;;;;;;13.74;100.00;101996.00;5027747;28;20474;-72
2023/10/05 03:04:57;;;;;;;7.57;2.47;;;;;;;13.78;100.00;101988.44;5026533;28;20120;-71
2023/10/05 03:07:26;;;;;;;6.85;1.80;;;;;;;13.71;100.00;101996.78;5026443;28;20032;-72
2023/10/05 03:09:52;;;;;;;7.63;1.98;;;;;;;13.68;100.00;102003.13;5021170;28;20482;-75
2023/10/05 03:12:20;;;;;;;9.65;2.47;;;;;;;13.69;100.00;101997.13;5016950;28;20025;-75
2023/10/05 03:14:47;;;;;;;5.05;1.85;;;;;;;13.71;100.00;101991.16;5024421;28;20417;-75
2023/10/05 03:17:16;;;;;;;5.68;2.00;;;;;;;13.80;100.00;101994.53;5024423;28;20401;-75
2023/10/05 03:19:41;;;;;;;4.10;2.20;;;;;;;13.68;100.00;101986.25;5014587;28;20033;-74
2023/10/05 03:22:12;;;;;;;10.05;2.17;;;;;;;13.68;100.00;101989.91;5023986;28;20062;-73
2023/10/05 03:24:47;;;;;;;6.72;2.00;;;;;;;13.65;100.00;101981.38;5024743;28;20021;-72
2023/10/05 03:27:21;;;;;;;6.40;2.05;;;;;;;13.72;100.00;101993.56;5016913;28;20049;-72
2023/10/05 03:29:46;;;;;;;12.15;2.90;;;;;;;13.71;100.00;101996.78;5015275;28;20036;-72
2023/10/05 03:34:39;;;;;;;5.20;1.67;;;;;;;13.70;100.00;101990.31;5019843;28;20033;-73
2023/10/05 03:37:10;;;;;;;8.68;2.05;;;;;;;13.71;100.00;101991.94;5039542;28;20497;-73
2023/10/05 03:39:40;;;;;;;8.60;2.00;;;;;;;13.77;100.00;101993.28;5033202;28;20147;-72
2023/10/05 03:42:05;;;;;;;4.75;1.55;;;;;;;13.71;100.00;101988.34;5027531;28;20100;-72
2023/10/05 03:44:31;;;;;;;7.47;2.55;;;;;;;13.71;100.00;101996.78;5021226;28;20081;-74
2023/10/05 03:46:57;;;;;;;5.85;1.77;;;;;;;13.73;100.00;101995.22;5024702;28;20025;-72
2023/10/05 03:49:22;;;;;;;4.63;1.55;;;;;;;13.65;100.00;101992.63;5026191;28;20029;-74
2023/10/05 03:51:51;;;;;;;7.60;2.25;;;;;;;13.62;100.00;101999.81;5027345;28;20060;-72
2023/10/05 03:54:26;;;;;;;7.43;2.38;;;;;;;13.66;100.00;101999.88;5023427;28;20021;-73
2023/10/05 03:57:04;;;;;;;8.35;2.10;;;;;;;13.63;100.00;102005.06;5020303;28;20112;-72
2023/10/05 03:59:32;;;;;;;7.70;1.80;;;;;;;13.67;100.00;102002.31;5023060;28;20079;-72
2023/10/05 04:01:59;;;;;;;9.55;2.28;;;;;;;13.64;100.00;102005.91;5015859;28;20394;-72
2023/10/05 04:04:28;;;;;;;4.85;1.88;;;;;;;13.65;100.00;102003.88;5019925;28;20064;-72
2023/10/05 04:06:54;;;;;;;10.95;2.20;;;;;;;13.67;100.00;102001.50;5030404;28;20465;-72
2023/10/05 04:09:19;;;;;;;5.32;1.80;;;;;;;13.65;100.00;102001.06;5013839;28;20042;-72
2023/10/05 04:11:45;;;;;;;6.47;2.30;;;;;;;13.58;100.00;102005.38;5017487;28;20415;-73
2023/10/05 04:14:12;;;;;;;9.43;1.45;;;;;;;13.57;100.00;102009.34;5023791;28;20393;-72
2023/10/05 04:16:38;;;;;;;8.80;3.05;;;;;;;13.63;100.00;102016.31;5024337;28;20052;-75
2023/10/05 04:19:04;;;;;;;6.43;1.52;;;;;;;13.62;100.00;102011.06;5026978;28;20032;-73
2023/10/05 04:21:33;;;;;;;5.88;1.75;;;;;;;13.66;100.00;102023.22;5019050;28;20040;-74
2023/10/05 04:23:59;;;;;;;6.72;2.20;;;;;;;13.66;100.00;102017.59;5019306;28;20081;-73
2023/10/05 04:26:37;;;;;;;5.25;1.92;;;;;;;13.66;100.00;102011.13;5010080;28;20036;-73
2023/10/05 04:29:04;;;;;;;5.75;1.98;;;;;;;13.62;100.00;102011.06;5012045;28;20043;-76
2023/10/05 04:31:31;;;;;;;8.18;3.03;;;;;;;13.58;100.00;102011.00;5030934;28;20064;-76
2023/10/05 04:33:57;;;;;;;8.65;2.30;;;;;;;13.55;100.00;102017.34;5025674;28;20033;-75
2023/10/05 04:36:24;;;;;;;5.75;1.90;;;;;;;13.57;100.00;102009.34;5014525;28;20036;-76
2023/10/05 04:38:53;;;;;;;11.75;3.70;;;;;;;13.53;100.00;102002.84;5018461;28;20033;-76
2023/10/05 04:41:19;;;;;;;4.72;2.22;;;;;;;13.58;100.00;102013.81;5022506;28;20425;-76
2023/10/05 04:43:47;;;;;;;4.82;1.92;;;;;;;13.66;100.00;101999.88;5018242;28;20034;-76
2023/10/05 04:46:14;;;;;;;4.72;2.38;;;;;;;13.66;100.00;102000.72;5014809;28;20052;-76
2023/10/05 04:48:48;;;;;;;9.50;2.53;;;;;;;13.55;100.00;102006.09;5016961;28;20029;-76
2023/10/05 04:51:14;;;;;;;8.88;2.95;;;;;;;13.53;100.00;102013.28;5017863;28;20576;-76
2023/10/05 04:53:42;;;;;;;8.82;2.03;;;;;;;13.50;100.00;102016.84;5007572;28;20045;-76
2023/10/05 04:56:14;;;;;;;7.57;2.15;;;;;;;13.48;100.00;102016.41;5013731;28;20076;-77
2023/10/05 04:58:53;;;;;;;;;;;;;;;13.44;100.00;102016.31;5021406;28;20029;-74
2023/10/05 05:01:29;;;;;;;6.57;2.00;;;;;;;13.44;100.00;102023.97;5017949;28;19917;-77
2023/10/05 05:03:56;;;;;;;9.32;1.92;;;;;;;13.39;100.00;102023.06;5016651;28;20625;-77
2023/10/05 05:06:25;;;;;;;5.35;2.28;;;;;;;13.37;100.00;102021.81;5012855;28;20483;-76
2023/10/05 05:08:51;;;;;;;6.50;2.10;;;;;;;13.42;100.00;102018.69;5015081;28;20502;-76
2023/10/05 05:11:18;;;;;;;7.85;2.55;;;;;;;13.45;100.00;102020.78;5019884;28;20047;-76
2023/10/05 05:13:48;;;;;;;8.35;2.22;;;;;;;13.41;100.00;102012.25;5020147;28;20026;-76
2023/10/05 05:16:15;;;;;;;13.73;3.28;;;;;;;13.48;100.00;102034.09;5015665;28;20034;-76
2023/10/05 05:18:41;;;;;;;7.20;2.58;;;;;;;13.42;100.00;102030.75;5017313;28;20029;-77
2023/10/05 05:21:11;;;;;;;10.07;2.40;;;;;;;13.48;100.00;102022.84;5012526;28;20033;-76
2023/10/05 05:23:37;;;;;;;7.72;2.75;;;;;;;13.47;100.00;102026.84;5017836;28;20437;-77
2023/10/05 05:26:03;;;;;;;9.25;2.08;;;;;;;13.28;100.00;102029.59;5017573;28;20033;-76
2023/10/05 05:28:30;;;;;;;5.70;2.13;;;;;;;13.33;100.00;102024.53;5023072;28;20045;-74
2023/10/05 05:30:55;;;;;;;6.28;1.70;;;;;;;13.39;100.00;102019.44;5025104;28;20044;-75
2023/10/05 05:33:20;;;;;;;4.95;2.10;;;;;;;13.45;100.00;102026.41;5025465;28;20022;-75
2023/10/05 05:35:46;;;;;;;6.88;2.25;;;;;;;13.41;100.00;102022.69;5012942;28;20025;-76
2023/10/05 05:38:11;;;;;;;7.75;1.77;;;;;;;13.35;100.00;102018.56;5021693;28;20029;-74
2023/10/05 05:40:40;;;;;;;5.97;2.13;;;;;;;13.32;100.00;102024.91;5020508;28;20116;-74
2023/10/05 05:43:10;;;;;;;10.23;2.42;;;;;;;13.33;100.00;102032.97;5010833;28;20034;-74
2023/10/05 05:45:39;;;;;;;3.30;1.83;;;;;;;13.49;100.00;102035.72;5023800;28;20278;-74
2023/10/05 05:48:10;;;;;;;13.60;3.38;;;;;;;13.37;100.00;102033.06;5018310;28;20155;-74
2023/10/05 05:50:39;;;;;;;6.97;2.22;;;;;;;13.32;100.00;102042.56;5026941;28;20037;-74
2023/10/05 05:53:06;;;;;;;7.75;2.67;;;;;;;13.37;100.00;102031.06;5016573;28;20033;-77
2023/10/05 05:55:32;;;;;;;10.65;3.45;;;;;;;13.43;100.00;102037.22;5020004;28;20060;-74
2023/10/05 05:57:58;;;;;;;4.13;1.75;;;;;;;13.81;100.00;102032.75;5024392;28;20033;-80
2023/10/05 06:00:23;;;;;;;4.00;1.70;;;;;;;14.21;100.00;102043.56;5022759;28;20048;-78
2023/10/05 06:02:49;;;;;;;4.70;1.85;;;;;;;15.48;100.00;102043.50;5015475;28;20509;-81
2023/10/05 06:05:16;;;;;;;5.07;2.00;;;;;;;15.88;100.00;102048.44;5019935;28;20061;-79
2023/10/05 06:07:43;;;;;;;6.03;3.00;;;;;;;16.32;100.00;102053.34;5026393;28;20096;-78
2023/10/05 06:10:12;;;;;;;4.70;2.65;;;;;;;15.97;100.00;102051.78;5019870;28;20584;-79
2023/10/05 06:12:51;;;;;;;10.18;2.63;;;;;;;15.09;100.00;102057.88;5019241;28;20033;-78
2023/10/05 06:15:16;;;;;;;7.38;2.88;;;;;;;15.12;100.00;102060.75;5017822;28;20643;-75
2023/10/05 06:17:43;;;;;;;6.63;2.40;;;;;;;15.03;100.00;102051.75;5024358;28;20029;-74
2023/10/05 06:20:15;;;;;;;8.00;2.70;;;;;;;15.35;100.00;102057.84;5023512;28;20386;-77
2023/10/05 06:22:45;;;;;;;5.93;2.83;;;;;;;14.99;100.00;102057.34;5028248;28;20025;-77
2023/10/05 06:25:12;;;;;;;5.40;2.38;;;;;;;15.35;100.00;102069.13;5021253;28;20028;-77
2023/10/05 06:27:38;;;;;;;7.43;2.38;;;;;;;15.07;100.00;102075.16;5022689;28;20129;-76
2023/10/05 06:30:08;;;;;;;4.20;2.63;;;;;;;14.91;100.00;102074.53;5024710;28;20108;-76
2023/10/05 06:32:34;;;;;;;5.70;2.17;;;;;;;15.52;100.00;102081.84;5018367;28;20129;-77
2023/10/05 06:34:59;;;;;;;14.02;3.58;;;;;;;15.18;100.00;102083.81;5023793;28;20687;-77
2023/10/05 06:37:25;;;;;;;8.23;2.63;;;;;;;14.70;100.00;102075.81;5017729;28;20124;-78
2023/10/05 06:39:53;;;;;;;9.27;2.10;;;;;;;14.41;100.00;102075.28;5010592;28;20570;-74
2023/10/05 06:42:19;;;;;;;5.00;2.60;;;;;;;14.56;100.00;102078.38;5014424;28;20025;-73
2023/10/05 06:44:45;;;;;;;4.00;2.35;;;;;;;14.44;100.00;102083.00;5025219;28;20112;-74
2023/10/05 06:47:18;;;;;;;11.45;2.63;;;;;;;14.56;100.00;102089.66;5023637;28;20028;-73
2023/10/05 06:49:44;;;;;;;7.93;2.63;;;;;;;14.60;100.00;102085.69;5017804;28;20397;-76
2023/10/05 06:52:09;;;;;;;7.95;2.83;;;;;;;14.95;100.00;102097.97;5019859;28;20021;-76
2023/10/05 06:54:35;;;;;;;10.25;2.75;;;;;;;14.62;100.00;102091.78;5015752;28;20546;-76
2023/10/05 06:57:00;;;;;;;9.45;2.78;;;;;;;14.88;100.00;102092.19;5032024;28;20032;-77
2023/10/05 06:59:26;;;;;;;9.57;2.83;;;;;;;14.68;100.00;102100.72;5011763;28;20021;-77
2023/10/05 07:01:52;;;;;;;9.98;2.67;;;;;;;14.23;100.00;102102.31;5021597;28;20057;-76
2023/10/05 07:04:24;;;;;;;8.75;3.00;;;;;;;14.14;100.00;102104.53;5019346;28;20607;-77
2023/10/05 07:06:50;;;;;;;4.28;1.95;;;;;;;13.98;100.00;102104.66;5018197;28;20033;-76
2023/10/05 07:09:16;;;;;;;7.95;2.35;;;;;;;13.98;100.00;102108.28;5020455;28;20026;-76
2023/10/05 07:11:41;;;;;;;12.88;2.80;;;;;;;13.90;100.00;102100.06;5024714;28;20021;-76
2023/10/05 07:14:09;;;;;;;10.60;3.15;;;;;;;13.87;100.00;102093.19;5022625;28;20038;-76
2023/10/05 07:16:35;;;;;;;6.03;2.33;;;;;;;13.86;100.00;102099.97;5018458;28;20390;-76
2023/10/05 07:19:00;;;;;;;12.52;2.67;;;;;;;13.84;100.00;102113.59;5020996;28;20025;-77
2023/10/05 07:21:25;;;;;;;8.95;2.92;;;;;;;13.90;100.00;102111.31;5018030;28;20555;-77
2023/10/05 07:23:51;;;;;;;7.38;2.55;;;;;;;13.92;100.00;102115.38;5023277;28;20032;-77
2023/10/05 07:26:16;;;;;;;4.32;2.15;;;;;;;13.98;100.00;102113.09;5024900;28;20025;-77
2023/10/05 07:28:41;;;;;;;4.45;2.88;;;;;;;13.96;100.00;102121.91;5020089;28;20041;-77
2023/10/05 07:31:07;;;;;;;5.78;2.10;;;;;;;14.01;100.00;102129.22;5019461;28;20068;-77
2023/10/05 07:33:36;;;;;;;11.07;2.72;;;;;;;14.00;100.00;102122.78;5020732;28;20564;-77
2023/10/05 07:36:02;;;;;;;6.45;2.10;;;;;;;14.06;100.00;102125.28;5030821;28;20537;-77
2023/10/05 07:38:28;;;;;;;11.13;2.60;;;;;;;14.06;100.00;102130.94;5023752;28;20458;-77
2023/10/05 07:40:57;;;;;;;10.35;2.67;;;;;;;14.09;100.00;102133.00;5017287;28;20478;-77
2023/10/05 07:43:23;;;;;;;9.90;2.78;;;;;;;14.09;100.00;102133.00;5012349;28;20030;-76
2023/10/05 07:45:49;;;;;;;10.80;2.35;;;;;;;14.14;100.00;102143.97;5016723;28;20029;-76
2023/10/05 07:48:14;;;;;;;7.70;3.25;;;;;;;14.11;100.00;102139.09;5027138;28;20532;-76
2023/10/05 07:50:40;;;;;;;12.60;2.33;;;;;;;14.18;100.00;102139.22;5019279;28;20485;-74
2023/10/05 07:53:05;;;;;;;10.77;3.30;;;;;;;14.20;100.00;102148.91;5015325;28;20025;-74
2023/10/05 07:55:31;;;;;;;6.57;2.80;;;;;;;14.20;100.00;102145.28;5013572;28;20386;-74
2023/10/05 07:57:56;;;;;;;16.17;3.85;;;;;;;14.22;100.00;102143.72;5018192;28;20026;-74
2023/10/05 08:00:22;;;;;;;17.05;2.83;;;;;;;14.27;100.00;102150.25;5020120;28;20461;-76
2023/10/05 08:02:47;;;;;;;10.60;2.53;;;;;;;14.28;100.00;102144.25;5018252;28;20496;-76
2023/10/05 08:05:13;;;;;;;6.18;2.13;;;;;;;14.34;100.00;102145.56;5018572;28;20051;-75
2023/10/05 08:07:39;;;;;;;8.75;2.13;;;;;;;14.36;100.00;102150.84;5027269;28;20437;-75
2023/10/05 08:10:19;;;;;;;7.70;3.30;;;;;;;14.41;100.00;102158.97;5024741;28;20433;-76
2023/10/05 08:12:48;;;;;;;8.30;2.25;;;;;;;14.43;100.00;102157.41;5023180;28;20083;-76
2023/10/05 08:15:16;;;;;;;14.48;4.40;;;;;;;14.46;100.00;102163.47;5022316;28;20076;-76
2023/10/05 08:17:41;;;;;;;14.55;3.05;;;;;;;14.48;100.00;102161.09;5017085;28;20029;-76
2023/10/05 08:20:07;;;;;;;5.72;2.00;;;;;;;14.51;100.00;102174.47;5026002;28;20167;-76
2023/10/05 08:22:35;;;;;;;7.93;3.13;;;;;;;14.50;100.00;102173.63;5029235;28;20033;-75
2023/10/05 08:25:07;;;;;;;13.02;3.25;;;;;;;14.49;100.00;102174.03;5020166;28;20385;-75
2023/10/05 08:27:32;;;;;;;4.75;2.78;;;;;;;14.54;100.00;102173.72;5018749;28;20059;-75
2023/10/05 08:29:58;;;;;;;6.80;2.70;;;;;;;14.60;100.00;102173.06;5024303;28;20041;-75
2023/10/05 08:32:25;;;;;;;8.70;2.25;;;;;;;14.66;100.00;102167.94;5032881;28;20576;-76
2023/10/05 08:34:51;;;;;;;9.25;2.15;;;;;;;14.66;100.00;102182.03;5025905;28;20033;-75
2023/10/05 08:37:19;;;;;;;9.45;2.08;;;;;;;14.66;100.00;102182.03;5029171;28;20032;-75
2023/10/05 08:39:46;;;;;;;11.15;3.53;;;;;;;14.72;100.00;102194.63;5028098;28;20092;-76
2023/10/05 08:42:13;;;;;;;7.10;1.98;;;;;;;14.75;100.00;102184.59;5025267;28;20029;-74
2023/10/05 08:44:41;;;;;;;9.52;2.95;;;;;;;14.76;100.00;102187.03;5020677;28;20036;-76
2023/10/05 08:47:12;;;;;;;16.35;3.55;;;;;;;14.75;100.00;102191.03;5019735;28;20037;-76
2023/10/05 08:49:38;;;;;;;7.63;2.75;;;;;;;14.77;100.00;102199.94;5023961;28;20237;-76
2023/10/05 08:52:13;;;;;;;11.65;2.97;;;;;;;14.77;100.00;102202.75;5027336;28;20029;-76
2023/10/05 08:54:39;;;;;;;7.15;2.13;;;;;;;14.80;100.00;102196.38;5024343;28;20025;-76
2023/10/05 08:57:14;;;;;;;7.72;3.33;;;;;;;14.88;100.00;102216.22;5022146;28;20089;-76
2023/10/05 08:59:45;;;;;;;11.68;2.58;;;;;;;14.85;100.00;102200.88;5026797;28;20567;-76
2023/10/05 09:02:11;;;;;;;15.48;2.88;;;;;;;14.91;100.00;102190.13;5020947;28;20033;-77
2023/10/05 09:04:43;;;;;;;7.97;3.17;;;;;;;14.90;100.00;102199.75;5024322;28;20025;-77
2023/10/05 09:07:09;;;;;;;7.53;2.53;;;;;;;14.94;100.00;102203.44;5029974;28;20548;-76
2023/10/05 09:09:57;;;;;;;7.70;2.50;;;;;;;15.02;100.00;102210.84;5017995;28;20827;-74
2023/10/05 09:12:46;;;;;;;7.22;2.63;;;;;;;15.09;100.00;102222.25;5027656;28;20046;-72
2023/10/05 09:15:22;;;;;;;4.75;2.72;;;;;;;15.03;100.00;102212.47;5028066;28;20041;-73
2023/10/05 09:18:17;;;;;;;9.05;2.88;;;;;;;15.05;100.00;102232.63;5028367;28;20381;-73
2023/10/05 09:20:46;;;;;;;8.65;2.42;;;;;;;15.18;100.00;102224.81;5033894;28;20035;-74
2023/10/05 09:23:13;;;;;;;8.60;2.70;;;;;;;15.15;100.00;102226.38;5019542;28;20762;-73
2023/10/05 09:25:48;;;;;;;11.43;3.20;;;;;;;15.18;100.00;102236.91;5029066;28;20074;-74
2023/10/05 09:28:28;;;;;;;7.88;2.60;;;;;;;15.18;100.00;102241.75;5027164;28;20779;-73
2023/10/05 09:30:59;;;;;;;8.35;2.88;;;;;;;15.20;100.00;102245.81;5021278;28;20030;-74
2023/10/05 09:33:34;;;;;;;11.15;3.10;;;;;;;15.29;100.00;102250.38;5019104;28;20456;-74
2023/10/05 09:36:16;;;;;;;11.98;3.78;;;;;;;15.26;100.00;102254.75;5030572;28;20036;-73
2023/10/05 09:38:46;;;;;;;6.75;2.05;;;;;;;15.34;100.00;102258.53;5025509;28;20512;-73
2023/10/05 09:41:15;;;;;;;12.15;3.15;;;;;;;15.35;100.00;102260.16;5026028;28;20096;-74
2023/10/05 09:43:44;;;;;;;7.53;2.60;;;;;;;15.34;100.00;102266.97;5022851;28;20394;-74
2023/10/05 09:46:10;;;;;;;12.18;2.97;;;;;;;15.41;100.00;102258.63;5027284;28;20025;-74
2023/10/05 09:48:40;;;;;;;13.48;4.25;;;;;;;15.42;100.00;102265.91;5023079;28;20040;-74
2023/10/05 09:51:08;;;;;;;9.57;4.13;;;;;;;15.49;100.00;102263.19;5023595;28;20478;-74
2023/10/05 09:53:38;;;;;;;7.22;2.60;;;;;;;15.51;100.00;102266.47;5022475;28;20474;-74
2023/10/05 09:56:04;;;;;;;4.88;2.35;;;;;;;15.68;100.00;102261.47;5032899;28;20088;-74
2023/10/05 09:58:30;;;;;;;8.93;2.30;;;;;;;15.74;100.00;102266.44;5028338;28;20026;-73
2023/10/05 10:00:56;;;;;;;9.57;2.60;;;;;;;15.90;100.00;102265.50;5022704;28;20493;-72
2023/10/05 10:03:22;;;;;;;11.38;2.53;;;;;;;15.79;100.00;102270.94;5023721;28;20588;-75
2023/10/05 10:05:52;;;;;;;9.82;2.88;;;;;;;15.58;100.00;102272.25;5031739;28;20054;-73
2023/10/05 10:08:31;;;;;;;6.05;3.00;;;;;;;15.70;100.00;102264.75;5030052;28;20104;-73
2023/10/05 10:11:02;;;;;;;15.50;3.25;;;;;;;15.71;100.00;102264.38;5027747;28;20028;-74
2023/10/05 10:13:29;;;;;;;5.60;2.53;;;;;;;15.84;100.00;102268.63;5021027;28;20029;-73
2023/10/05 10:15:58;;;;;;;7.45;2.70;;;;;;;15.76;100.00;102268.91;5020229;28;20540;-73
2023/10/05 10:18:37;;;;;;;8.98;3.33;;;;;;;15.74;100.00;102269.28;5029105;28;20029;-74
2023/10/05 10:21:09;;;;;;;11.07;2.50;;;;;;;15.88;100.00;102267.88;5025044;28;20757;-73
2023/10/05 10:23:36;;;;;;;10.70;2.88;;;;;;;15.88;100.00;102271.50;5026005;28;20036;-74
2023/10/05 10:26:06;;;;;;;13.43;3.25;;;;;;;15.97;100.00;102274.06;5016705;28;20022;-74
2023/10/05 10:31:17;;;;;;;6.63;2.65;;;;;;;15.92;100.00;102266.72;5018395;28;20067;-76
2023/10/05 10:33:54;;;;;;;9.73;2.72;;;;;;;15.84;100.00;102250.88;5011728;28;20144;-77
2023/10/05 10:36:23;;;;;;;5.22;2.58;;;;;;;15.89;100.00;102261.81;5017857;28;20033;-78
2023/10/05 10:38:50;;;;;;;12.07;2.90;;;;;;;15.85;100.00;102275.91;5018629;28;20037;-77
2023/10/05 10:41:16;;;;;;;11.77;3.03;;;;;;;15.88;100.00;102279.97;5029348;28;20876;-76
2023/10/05 10:43:49;;;;;;;14.68;4.25;;;;;;;15.91;100.00;102276.38;5026497;28;20500;-77
2023/10/05 10:46:29;;;;;;;;;;;;;;;15.95;100.00;102280.06;5025211;28;20719;-77
2023/10/05 10:48:58;;;;;;;8.00;2.38;;;;;;;16.00;100.00;102270.44;5032471;28;19924;-77
2023/10/05 10:51:31;;;;;;;12.10;3.28;;;;;;;16.03;100.00;102270.50;5031990;28;20021;-78
2023/10/05 10:53:59;;;;;;;10.63;3.83;;;;;;;16.16;100.00;102273.09;5031843;28;20029;-78
2023/10/05 10:56:30;;;;;;;7.53;2.83;;;;;;;16.21;100.00;102284.06;5026942;28;20025;-77
2023/10/05 10:59:13;;;;;;;10.65;3.17;;;;;;;16.24;100.00;102280.47;5028519;28;20079;-78
2023/10/05 11:01:43;;;;;;;6.38;3.03;;;;;;;16.31;100.00;102283.38;5032908;28;20043;-78
2023/10/05 11:04:26;;;;;;;7.53;2.63;;;;;;;16.42;100.00;102280.69;5027058;28;20088;-77
2023/10/05 11:06:56;;;;;;;5.65;2.30;;;;;;;16.47;100.00;102283.19;5025730;28;20025;-77
2023/10/05 11:09:30;;;;;;;10.85;2.78;;;;;;;16.51;100.00;102286.06;5032945;28;20037;-77
2023/10/05 11:12:08;;;;;;;6.38;2.72;;;;;;;16.52;100.00;102284.88;5042208;28;20390;-77
2023/10/05 11:14:34;;;;;;;6.88;2.90;;;;;;;16.49;100.00;102280.81;5029007;28;20452;-77
2023/10/05 11:17:00;;;;;;;12.27;3.53;;;;;;;16.58;100.00;102281.31;5038541;28;20035;-77
2023/10/05 11:19:36;;;;;;;14.77;4.28;;;;;;;16.69;100.00;102278.59;5044367;28;20112;-74
2023/10/05 11:22:07;;;;;;;9.45;2.92;;;;;;;16.52;100.00;102284.88;5035931;28;20024;-74
2023/10/05 11:24:39;;;;;;;7.07;2.67;;;;;;;16.64;100.00;102282.59;5030532;28;20108;-74
2023/10/05 11:27:14;;;;;;;9.45;2.75;;;;;;;16.63;100.00;102285.81;5034262;28;20053;-75
2023/10/05 11:29:43;;;;;;;7.28;2.92;;;;;;;16.63;100.00;102280.16;5024950;28;20032;-74
2023/10/05 11:32:15;;;;;;;11.90;2.67;;;;;;;16.73;100.00;102273.81;5030171;28;20024;-75
2023/10/05 11:34:42;;;;;;;7.25;2.30;;;;;;;16.89;100.00;102275.63;5024336;28;20360;-74
2023/10/05 11:37:18;;;;;;;11.45;2.97;;;;;;;17.00;100.00;102279.38;5027310;28;20033;-75
2023/10/05 11:39:50;;;;;;;6.78;3.05;;;;;;;17.14;100.00;102276.69;5014545;28;20032;-77